createdAt,value
2022-12-17T00:00:14.944Z,42.90
2022-12-17T00:01:13.682Z,39
2022-12-17T00:02:13.663Z,45.90
2022-12-17T00:03:14.325Z,52.40
2022-12-17T00:04:14.215Z,42.90
2022-12-17T00:05:13.956Z,45.59
2022-12-17T00:06:12.986Z,44.79
2022-12-17T00:08:12.850Z,46.59
2022-12-17T00:09:13.283Z,50.40
2022-12-17T00:10:13.400Z,47.09
2022-12-17T00:11:13.271Z,49.5
2022-12-17T00:12:13.152Z,48
2022-12-17T00:13:13.067Z,46.5
2022-12-17T00:14:12.993Z,48.29
2022-12-17T00:15:13.256Z,43.90
2022-12-17T00:16:13.374Z,42.59
2022-12-17T00:17:13.795Z,43.20
2022-12-17T00:18:13.922Z,44.09
2022-12-17T00:19:13.626Z,42.29
2022-12-17T00:20:13.581Z,43.90
2022-12-17T00:21:13.340Z,45.5
2022-12-17T00:22:13.238Z,47.29
2022-12-17T00:24:12.904Z,45.29
2022-12-17T00:26:13.426Z,48.90
2022-12-17T00:28:13.165Z,49.79
2022-12-17T00:29:13.112Z,52.20
2022-12-17T00:30:13.375Z,50.09
2022-12-17T00:31:13.541Z,49.40
2022-12-17T00:33:13.387Z,47.40
2022-12-17T00:34:13.308Z,52.29
2022-12-17T00:35:13.436Z,52.59
2022-12-17T00:36:13.380Z,51.70
2022-12-17T00:37:13.471Z,54.09
2022-12-17T00:38:13.135Z,44.59
2022-12-17T00:39:12.815Z,46.90
2022-12-17T00:40:13.851Z,47.59
2022-12-17T00:41:13.715Z,47.70
2022-12-17T00:42:13.523Z,51.90
2022-12-17T00:43:13.399Z,50.40
2022-12-17T00:44:13.331Z,47.40
2022-12-17T00:45:13.528Z,45.29
2022-12-17T00:46:13.532Z,43.20
2022-12-17T00:47:13.536Z,41.90
2022-12-17T00:48:13.283Z,40.90
2022-12-17T00:49:12.984Z,54.79
2022-12-17T00:50:13.056Z,46.59
2022-12-17T00:51:12.819Z,43.70
2022-12-17T00:52:13.962Z,43.79
2022-12-17T00:53:13.133Z,46.79
2022-12-17T00:54:13.391Z,47.5
2022-12-17T00:56:13.409Z,46.29
2022-12-17T00:57:13.503Z,44.59
2022-12-17T00:58:13.304Z,46.70
2022-12-17T00:59:13.339Z,45.59
2022-12-17T01:00:14.260Z,44.79
2022-12-17T01:01:15.272Z,45.40
2022-12-17T01:02:13.571Z,46.40
2022-12-17T01:03:14.035Z,44.29
2022-12-17T01:04:13.038Z,41.5
2022-12-17T01:05:13.389Z,39.59
2022-12-17T01:06:13.154Z,39.5
2022-12-17T01:07:13.509Z,36.90
2022-12-17T01:08:13.364Z,38.40
2022-12-17T01:09:13.416Z,38
2022-12-17T01:10:13.379Z,37.70
2022-12-17T01:11:13.420Z,39
2022-12-17T01:12:13.476Z,39.5
2022-12-17T01:13:13.259Z,44.70
2022-12-17T01:14:13.194Z,45
2022-12-17T01:15:13.361Z,43
2022-12-17T01:16:13.251Z,46.09
2022-12-17T01:17:13.634Z,44.79
2022-12-17T01:18:13.601Z,42.40
2022-12-17T01:19:13.498Z,47.20
2022-12-17T01:20:13.524Z,46.79
2022-12-17T01:21:13.810Z,47.20
2022-12-17T01:22:13.660Z,43
2022-12-17T01:23:13.383Z,44.70
2022-12-17T01:24:13.390Z,43.40
2022-12-17T01:25:13.152Z,43.09
2022-12-17T01:26:12.813Z,41.20
2022-12-17T01:27:13.643Z,43.79
2022-12-17T01:29:13.217Z,46.90
2022-12-17T01:30:13.303Z,46
2022-12-17T01:31:13.281Z,47
2022-12-17T01:32:13.375Z,50.59
2022-12-17T01:33:13.380Z,48.29
2022-12-17T01:34:13.055Z,48.20
2022-12-17T01:35:13.219Z,47
2022-12-17T01:36:13.333Z,46.20
2022-12-17T01:37:13.508Z,43.5
2022-12-17T01:38:13.389Z,43
2022-12-17T01:39:13.289Z,42
2022-12-17T01:40:13.076Z,41.59
2022-12-17T01:41:13.256Z,43.29
2022-12-17T01:42:13.049Z,40.70
2022-12-17T01:43:13.389Z,44.5
2022-12-17T01:44:13.639Z,39.5
2022-12-17T01:45:14.045Z,40
2022-12-17T01:47:13.309Z,36.29
2022-12-17T01:48:12.973Z,37.70
2022-12-17T01:49:12.945Z,37.5
2022-12-17T01:50:13.065Z,38.09
2022-12-17T01:51:12.835Z,38.29
2022-12-17T01:52:13.865Z,35.90
2022-12-17T01:53:14.075Z,37.79
2022-12-17T01:54:12.962Z,39.09
2022-12-17T01:55:13.921Z,36.20
2022-12-17T01:56:13.781Z,33.5
2022-12-17T01:57:13.498Z,34.20
2022-12-17T01:58:13.049Z,36.09
2022-12-17T01:59:12.885Z,32.59
2022-12-17T02:01:14.231Z,31.79
2022-12-17T02:02:18.788Z,31.70
2022-12-17T02:03:13.335Z,34.70
2022-12-17T02:04:13.953Z,31.5
2022-12-17T02:05:13.734Z,31.70
2022-12-17T02:06:13.765Z,28.70
2022-12-17T02:07:13.739Z,28.29
2022-12-17T02:08:13.507Z,31.10
2022-12-17T02:09:13.435Z,27.70
2022-12-17T02:10:13.398Z,30.10
2022-12-17T02:11:13.214Z,33.40
2022-12-17T02:12:12.978Z,29.20
2022-12-17T02:13:12.882Z,29.29
2022-12-17T02:14:12.900Z,28.39
2022-12-17T02:15:13.411Z,26.89
2022-12-17T02:16:13.257Z,26.70
2022-12-17T02:17:13.483Z,28.79
2022-12-17T02:18:13.428Z,29.10
2022-12-17T02:19:13.617Z,27.79
2022-12-17T02:20:13.938Z,27.10
2022-12-17T02:21:13.319Z,26
2022-12-17T02:22:27.495Z,26.70
2022-12-17T02:23:13.468Z,30.29
2022-12-17T02:24:13.523Z,25.20
2022-12-17T02:25:13.436Z,26.20
2022-12-17T02:26:13.439Z,26.5
2022-12-17T02:27:13.355Z,26.70
2022-12-17T02:28:13.302Z,25.79
2022-12-17T02:29:13.102Z,25.20
2022-12-17T02:30:32.122Z,27
2022-12-17T02:31:13.799Z,27.20
2022-12-17T02:32:32.602Z,25.70
2022-12-17T02:33:13.172Z,25.20
2022-12-17T02:34:13.042Z,25.5
2022-12-17T02:35:13.016Z,24.39
2022-12-17T02:36:13.234Z,26.10
2022-12-17T02:37:13.240Z,25.39
2022-12-17T02:38:13.058Z,25.60
2022-12-17T02:39:13.196Z,25.29
2022-12-17T02:40:13.394Z,28.29
2022-12-17T02:41:13.293Z,25.39
2022-12-17T02:42:13.154Z,26.89
2022-12-17T02:43:13.520Z,26.10
2022-12-17T02:44:13.675Z,24.89
2022-12-17T02:45:13.805Z,26.60
2022-12-17T02:46:13.975Z,26.29
2022-12-17T02:47:13.161Z,25.70
2022-12-17T02:48:13.138Z,24.39
2022-12-17T02:49:13.316Z,23.5
2022-12-17T02:50:13.520Z,27
2022-12-17T02:51:13.417Z,24.20
2022-12-17T02:52:13.285Z,23
2022-12-17T02:53:13.387Z,25.39
2022-12-17T02:54:13.139Z,26
2022-12-17T02:55:13.257Z,26.39
2022-12-17T02:56:12.752Z,24.5
2022-12-17T02:57:13.632Z,25.20
2022-12-17T02:58:13.486Z,26.89
2022-12-17T02:59:13.339Z,23.79
2022-12-17T03:00:14.325Z,25.20
2022-12-17T03:01:14.172Z,27
2022-12-17T03:02:13.779Z,24.70
2022-12-17T03:03:13.401Z,25
2022-12-17T03:05:42.773Z,24.70
2022-12-17T03:06:13.246Z,25
2022-12-17T03:08:13.436Z,24.29
2022-12-17T03:09:13.874Z,25.29
2022-12-17T03:10:13.915Z,24.5
2022-12-17T03:11:13.749Z,24.20
2022-12-17T03:12:12.821Z,25.79
2022-12-17T03:13:13.754Z,26
2022-12-17T03:14:13.533Z,27.20
2022-12-17T03:15:14.038Z,24.60
2022-12-17T03:16:13.016Z,25.5
2022-12-17T03:17:13.349Z,24.5
2022-12-17T03:18:13.437Z,24.79
2022-12-17T03:19:13.476Z,25.89
2022-12-17T03:20:13.476Z,26.29
2022-12-17T03:21:13.416Z,25.39
2022-12-17T03:22:13.652Z,25.5
2022-12-17T03:23:13.397Z,25.60
2022-12-17T03:24:13.398Z,22.5
2022-12-17T03:25:13.432Z,24.29
2022-12-17T03:26:13.473Z,25.29
2022-12-17T03:27:13.634Z,24
2022-12-17T03:28:13.844Z,27.10
2022-12-17T03:29:13.993Z,24
2022-12-17T03:31:13.894Z,23.39
2022-12-17T03:32:13.125Z,24.39
2022-12-17T03:33:12.814Z,23.60
2022-12-17T03:34:13.600Z,25
2022-12-17T03:35:13.533Z,23.39
2022-12-17T03:36:13.549Z,25.10
2022-12-17T03:37:13.621Z,22.79
2022-12-17T03:38:13.420Z,23.70
2022-12-17T03:39:13.353Z,24.60
2022-12-17T03:40:13.768Z,22.60
2022-12-17T03:41:13.569Z,24.70
2022-12-17T03:42:13.725Z,23
2022-12-17T03:43:14.288Z,25.20
2022-12-17T03:44:13.537Z,20.5
2022-12-17T03:45:13.763Z,27.60
2022-12-17T03:46:13.792Z,23.20
2022-12-17T03:47:13.781Z,24.5
2022-12-17T03:48:14.197Z,22.70
2022-12-17T03:49:13.349Z,22.39
2022-12-17T03:50:13.116Z,24.20
2022-12-17T03:51:13.223Z,24.29
2022-12-17T03:52:13.131Z,24
2022-12-17T03:53:13.154Z,24.10
2022-12-17T03:54:13.214Z,25.10
2022-12-17T03:55:13.166Z,25
2022-12-17T03:56:12.947Z,24.39
2022-12-17T03:58:12.994Z,21.5
2022-12-17T03:59:13.091Z,23
2022-12-17T04:00:13.541Z,26.20
2022-12-17T04:01:13.955Z,22.39
2022-12-17T04:02:13.144Z,22.89
2022-12-17T04:03:13.566Z,21.89
2022-12-17T04:04:13.945Z,21.5
2022-12-17T04:05:18.305Z,21.89
2022-12-17T04:06:14.013Z,21.79
2022-12-17T04:07:13.075Z,22.60
2022-12-17T04:08:13.421Z,22.39
2022-12-17T04:09:13.503Z,20.29
2022-12-17T04:10:13.770Z,22.5
2022-12-17T04:11:13.122Z,22.29
2022-12-17T04:12:13.505Z,21.29
2022-12-17T04:13:13.221Z,21.60
2022-12-17T04:14:13.013Z,20.10
2022-12-17T04:15:13.380Z,21.29
2022-12-17T04:16:13.535Z,21.5
2022-12-17T04:17:13.606Z,21.10
2022-12-17T04:18:13.257Z,21.70
2022-12-17T04:19:12.880Z,22
2022-12-17T04:20:14.042Z,20.60
2022-12-17T04:21:13.552Z,22.89
2022-12-17T04:22:13.604Z,20
2022-12-17T04:23:13.217Z,21.20
2022-12-17T04:24:13.334Z,21.39
2022-12-17T04:25:13.389Z,21.60
2022-12-17T04:26:13.357Z,19.79
2022-12-17T04:27:13.493Z,19.60
2022-12-17T04:28:13.278Z,20.20
2022-12-17T04:29:13.159Z,20.79
2022-12-17T04:30:13.422Z,23.60
2022-12-17T04:31:13.185Z,21.29
2022-12-17T04:32:13.708Z,19.70
2022-12-17T04:33:13.814Z,19
2022-12-17T04:34:13.703Z,18.70
2022-12-17T04:35:14.004Z,19.70
2022-12-17T04:36:12.999Z,20.70
2022-12-17T04:37:13.749Z,22.79
2022-12-17T04:38:13.040Z,21.39
2022-12-17T04:39:13.040Z,18.10
2022-12-17T04:40:14.017Z,21.29
2022-12-17T04:41:13.302Z,20.39
2022-12-17T04:42:12.961Z,21.29
2022-12-17T04:43:13.292Z,21.5
2022-12-17T04:44:13.635Z,20.60
2022-12-17T04:45:14.186Z,22.10
2022-12-17T04:46:13.452Z,21.89
2022-12-17T04:47:13.923Z,23.10
2022-12-17T04:48:13.749Z,22.89
2022-12-17T04:49:14.000Z,21.20
2022-12-17T04:50:13.317Z,22.79
2022-12-17T04:51:13.483Z,21.39
2022-12-17T04:52:13.224Z,23.60
2022-12-17T04:53:13.014Z,23
2022-12-17T04:54:12.786Z,21.29
2022-12-17T04:55:13.713Z,21.5
2022-12-17T04:56:13.738Z,20.60
2022-12-17T04:57:13.570Z,20.70
2022-12-17T04:58:13.211Z,24.70
2022-12-17T04:59:32.240Z,23.29
2022-12-17T05:00:13.614Z,24.10
2022-12-17T05:01:14.042Z,23.29
2022-12-17T05:02:13.753Z,22.20
2022-12-17T05:03:13.519Z,21.79
2022-12-17T05:04:13.807Z,25.39
2022-12-17T05:05:13.256Z,24.70
2022-12-17T05:06:13.147Z,25.5
2022-12-17T05:07:13.039Z,25.10
2022-12-17T05:08:13.040Z,25.20
2022-12-17T05:09:12.985Z,24.5
2022-12-17T05:10:13.831Z,24.20
2022-12-17T05:11:13.634Z,25.29
2022-12-17T05:12:13.674Z,26
2022-12-17T05:13:13.778Z,26.79
2022-12-17T05:14:13.639Z,27.5
2022-12-17T05:15:14.115Z,25.10
2022-12-17T05:16:13.061Z,27.5
2022-12-17T05:17:13.121Z,26.89
2022-12-17T05:18:13.113Z,26.39
2022-12-17T05:19:12.805Z,24.60
2022-12-17T05:20:13.924Z,23.29
2022-12-17T05:21:13.988Z,25.29
2022-12-17T05:22:13.093Z,25.20
2022-12-17T05:23:12.953Z,24.60
2022-12-17T05:24:13.251Z,24.29
2022-12-17T05:25:13.697Z,26.89
2022-12-17T05:26:13.645Z,26.20
2022-12-17T05:27:13.816Z,27.29
2022-12-17T05:28:13.708Z,27.10
2022-12-17T05:29:15.996Z,28.5
2022-12-17T05:30:13.365Z,26.60
2022-12-17T05:31:13.417Z,28.89
2022-12-17T05:32:13.702Z,28.5
2022-12-17T05:33:13.605Z,26.60
2022-12-17T05:34:13.947Z,27.60
2022-12-17T05:35:13.376Z,26.39
2022-12-17T05:36:13.370Z,22.79
2022-12-17T05:37:13.288Z,24.89
2022-12-17T05:38:13.299Z,25.5
2022-12-17T05:39:13.418Z,24.39
2022-12-17T05:40:13.477Z,24
2022-12-17T05:41:13.463Z,23.39
2022-12-17T05:43:13.173Z,23
2022-12-17T05:44:13.286Z,23.29
2022-12-17T05:45:13.630Z,21.70
2022-12-17T05:46:13.422Z,21.20
2022-12-17T05:47:13.507Z,21.79
2022-12-17T05:48:13.398Z,21.5
2022-12-17T05:49:13.447Z,22.10
2022-12-17T05:50:13.713Z,19.89
2022-12-17T05:51:13.748Z,20.29
2022-12-17T05:52:13.876Z,21.29
2022-12-17T05:53:13.231Z,21.20
2022-12-17T05:54:13.341Z,21.39
2022-12-17T05:55:13.667Z,20.20
2022-12-17T05:56:13.541Z,19
2022-12-17T05:57:13.124Z,21.10
2022-12-17T05:58:12.914Z,20.29
2022-12-17T05:59:13.809Z,20.20
2022-12-17T06:00:14.496Z,18.39
2022-12-17T06:01:14.250Z,18.89
2022-12-17T06:02:13.972Z,20
2022-12-17T06:03:13.375Z,19.79
2022-12-17T06:04:13.712Z,20.10
2022-12-17T06:05:13.136Z,20.20
2022-12-17T06:06:13.222Z,18.60
2022-12-17T06:07:13.571Z,21.39
2022-12-17T06:08:13.611Z,19.10
2022-12-17T06:09:13.828Z,23.10
2022-12-17T06:10:14.159Z,20.89
2022-12-17T06:11:13.433Z,21
2022-12-17T06:12:13.485Z,27.89
2022-12-17T06:13:13.375Z,23.79
2022-12-17T06:14:13.096Z,23.89
2022-12-17T06:15:13.485Z,23.5
2022-12-17T06:16:13.682Z,23.29
2022-12-17T06:18:16.880Z,24.89
2022-12-17T06:19:13.297Z,25
2022-12-17T06:20:13.438Z,24.10
2022-12-17T06:21:13.571Z,24.79
2022-12-17T06:23:13.772Z,23.70
2022-12-17T06:24:13.596Z,22.10
2022-12-17T06:25:14.172Z,22.60
2022-12-17T06:26:13.307Z,20.89
2022-12-17T06:27:13.329Z,22.29
2022-12-17T06:28:13.484Z,23.79
2022-12-17T06:29:13.409Z,20.60
2022-12-17T06:30:18.490Z,19.39
2022-12-17T06:31:13.457Z,20.10
2022-12-17T06:32:13.735Z,22.20
2022-12-17T06:33:13.806Z,19.10
2022-12-17T06:34:13.807Z,19.60
2022-12-17T06:35:13.799Z,21.20
2022-12-17T06:36:21.320Z,22
2022-12-17T06:37:13.660Z,22.10
2022-12-17T06:38:13.873Z,19.5
2022-12-17T06:39:13.228Z,20.70
2022-12-17T06:40:13.558Z,21.60
2022-12-17T06:41:13.459Z,21.70
2022-12-17T06:42:13.382Z,22.70
2022-12-17T06:43:13.552Z,24.20
2022-12-17T06:44:13.703Z,22.29
2022-12-17T06:45:13.944Z,20.70
2022-12-17T06:46:12.954Z,22.60
2022-12-17T06:47:14.001Z,22.70
2022-12-17T06:48:13.162Z,20.10
2022-12-17T06:49:13.152Z,19.79
2022-12-17T06:50:13.387Z,20.89
2022-12-17T06:51:13.358Z,18.89
2022-12-17T06:52:13.533Z,19.29
2022-12-17T06:53:13.234Z,21.5
2022-12-17T06:54:13.423Z,19.60
2022-12-17T06:55:13.673Z,16.70
2022-12-17T06:56:13.946Z,18.60
2022-12-17T06:57:13.743Z,18.79
2022-12-17T06:59:13.502Z,18.89
2022-12-17T07:00:14.410Z,20.39
2022-12-17T07:01:14.205Z,19.10
2022-12-17T07:02:13.950Z,18.39
2022-12-17T07:03:14.974Z,20.39
2022-12-17T07:04:13.979Z,21.29
2022-12-17T07:05:13.475Z,20.39
2022-12-17T07:06:13.433Z,19.5
2022-12-17T07:07:13.524Z,18.60
2022-12-17T07:08:13.381Z,20
2022-12-17T07:09:13.636Z,18.79
2022-12-17T07:10:14.583Z,19.29
2022-12-17T07:11:13.215Z,20.29
2022-12-17T07:12:14.004Z,19.89
2022-12-17T07:13:13.073Z,21.10
2022-12-17T07:14:14.186Z,20.79
2022-12-17T07:15:13.571Z,19.60
2022-12-17T07:16:14.225Z,19
2022-12-17T07:17:13.459Z,21.29
2022-12-17T07:18:13.644Z,18.39
2022-12-17T07:19:13.742Z,18.89
2022-12-17T07:20:13.533Z,17.29
2022-12-17T07:21:13.777Z,20.60
2022-12-17T07:22:13.726Z,19.5
2022-12-17T07:23:14.036Z,17
2022-12-17T07:24:13.845Z,16.70
2022-12-17T07:25:13.423Z,20.10
2022-12-17T07:26:13.522Z,19.39
2022-12-17T07:27:13.968Z,19.5
2022-12-17T07:28:13.211Z,20.39
2022-12-17T07:29:13.473Z,18.60
2022-12-17T07:30:13.963Z,18.29
2022-12-17T07:31:13.491Z,19.39
2022-12-17T07:32:14.286Z,18.89
2022-12-17T07:33:13.273Z,20.60
2022-12-17T07:34:13.661Z,19.5
2022-12-17T07:35:13.857Z,19
2022-12-17T07:36:13.311Z,20.29
2022-12-17T07:37:17.425Z,20
2022-12-17T07:38:13.562Z,20.39
2022-12-17T07:39:14.101Z,19.29
2022-12-17T07:40:13.388Z,19.39
2022-12-17T07:41:13.542Z,17.70
2022-12-17T07:42:14.112Z,19.29
2022-12-17T07:43:13.405Z,19.89
2022-12-17T07:44:13.673Z,21.39
2022-12-17T07:45:14.331Z,18.39
2022-12-17T07:46:13.770Z,18.70
2022-12-17T07:47:13.723Z,19.39
2022-12-17T07:48:13.948Z,18.79
2022-12-17T07:49:13.475Z,18.10
2022-12-17T07:50:13.087Z,18.89
2022-12-17T07:51:13.619Z,19
2022-12-17T07:52:13.979Z,19.5
2022-12-17T07:53:13.635Z,19.79
2022-12-17T07:54:13.618Z,18.89
2022-12-17T07:55:18.107Z,18.60
2022-12-17T07:56:13.355Z,19.10
2022-12-17T07:57:13.763Z,20.29
2022-12-17T07:59:13.516Z,17.10
2022-12-17T08:00:14.620Z,19.10
2022-12-17T08:01:14.414Z,18.10
2022-12-17T08:02:14.397Z,19
2022-12-17T08:03:13.111Z,17.70
2022-12-17T08:04:13.832Z,17.89
2022-12-17T08:05:13.774Z,22.39
2022-12-17T08:06:14.059Z,20.29
2022-12-17T08:07:14.237Z,17.5
2022-12-17T08:08:13.694Z,18.60
2022-12-17T08:09:14.121Z,18.5
2022-12-17T08:10:13.808Z,18.10
2022-12-17T08:11:13.483Z,17.70
2022-12-17T08:13:14.446Z,18.79
2022-12-17T08:14:13.672Z,17.60
2022-12-17T08:15:14.703Z,19.60
2022-12-17T08:16:14.136Z,19.29
2022-12-17T08:17:13.748Z,16
2022-12-17T08:18:13.641Z,18.10
2022-12-17T08:19:13.922Z,17.70
2022-12-17T08:20:14.316Z,15.10
2022-12-17T08:21:13.862Z,17.79
2022-12-17T08:22:13.260Z,17.60
2022-12-17T08:23:13.441Z,18.29
2022-12-17T08:24:14.152Z,17.60
2022-12-17T08:25:13.969Z,17.10
2022-12-17T08:26:13.391Z,17.89
2022-12-17T08:27:13.670Z,18.10
2022-12-17T08:28:41.251Z,18.20
2022-12-17T08:29:13.475Z,16.70
2022-12-17T08:30:14.176Z,19.20
2022-12-17T08:32:13.700Z,18.79
2022-12-17T08:33:13.339Z,16.5
2022-12-17T08:34:13.773Z,18.60
2022-12-17T08:35:14.278Z,19.20
2022-12-17T08:36:13.928Z,19
2022-12-17T08:37:13.592Z,26
2022-12-17T08:38:13.951Z,29.29
2022-12-17T08:39:13.462Z,27.20
2022-12-17T08:40:13.764Z,22.5
2022-12-17T08:41:13.908Z,28.39
2022-12-17T08:42:13.136Z,21.5
2022-12-17T08:43:13.300Z,21.29
2022-12-17T08:44:13.682Z,20.29
2022-12-17T08:45:14.142Z,21.10
2022-12-17T08:46:13.227Z,20.39
2022-12-17T08:47:13.625Z,21.5
2022-12-17T08:48:14.081Z,19.89
2022-12-17T08:49:13.651Z,22
2022-12-17T08:50:14.249Z,18.29
2022-12-17T08:51:13.726Z,19.20
2022-12-17T08:52:13.463Z,18.89
2022-12-17T08:53:13.589Z,20.39
2022-12-17T08:54:14.188Z,19.70
2022-12-17T08:55:13.719Z,21.60
2022-12-17T08:56:13.927Z,18.79
2022-12-17T08:58:13.290Z,19.29
2022-12-17T08:59:13.317Z,21.10
2022-12-17T09:00:14.456Z,18.79
2022-12-17T09:01:14.212Z,18.60
2022-12-17T09:02:14.027Z,19.70
2022-12-17T09:03:14.171Z,19.39
2022-12-17T09:04:14.030Z,18.29
2022-12-17T09:05:13.614Z,17.39
2022-12-17T09:06:13.656Z,19.60
2022-12-17T09:07:14.028Z,18.5
2022-12-17T09:08:13.519Z,18.29
2022-12-17T09:09:13.950Z,18.5
2022-12-17T09:10:13.560Z,18.10
2022-12-17T09:11:18.938Z,19.60
2022-12-17T09:12:13.791Z,19.5
2022-12-17T09:13:13.148Z,17.39
2022-12-17T09:14:13.261Z,18.70
2022-12-17T09:15:14.081Z,18.89
2022-12-17T09:16:13.465Z,19.10
2022-12-17T09:17:14.010Z,18.5
2022-12-17T09:18:13.352Z,18.79
2022-12-17T09:19:13.388Z,19.39
2022-12-17T09:21:13.471Z,19
2022-12-17T09:22:13.958Z,21.79
2022-12-17T09:23:13.607Z,20.60
2022-12-17T09:24:13.970Z,22.10
2022-12-17T09:25:13.233Z,18.70
2022-12-17T09:26:13.296Z,19.29
2022-12-17T09:27:13.608Z,19
2022-12-17T09:28:13.799Z,19.89
2022-12-17T09:29:13.335Z,19.60
2022-12-17T09:30:14.413Z,21.29
2022-12-17T09:31:14.085Z,19.60
2022-12-17T09:32:13.473Z,19.89
2022-12-17T09:33:13.700Z,18.39
2022-12-17T09:34:13.737Z,19.79
2022-12-17T09:35:13.858Z,20.10
2022-12-17T09:36:13.286Z,17.10
2022-12-17T09:37:13.637Z,21
2022-12-17T09:38:13.827Z,18.39
2022-12-17T09:39:13.335Z,19.29
2022-12-17T09:40:14.001Z,16.89
2022-12-17T09:41:13.199Z,18.89
2022-12-17T09:42:13.625Z,19.10
2022-12-17T09:43:13.877Z,21
2022-12-17T09:44:13.825Z,19.89
2022-12-17T09:45:13.537Z,20.79
2022-12-17T09:46:13.593Z,17
2022-12-17T09:47:14.011Z,19.79
2022-12-17T09:48:13.510Z,18.20
2022-12-17T09:49:13.810Z,18.39
2022-12-17T09:50:13.518Z,18.60
2022-12-17T09:51:14.130Z,18.10
2022-12-17T09:52:13.693Z,19.5
2022-12-17T09:53:13.886Z,19.20
2022-12-17T09:54:13.109Z,17.10
2022-12-17T09:55:13.354Z,18.39
2022-12-17T09:56:13.520Z,17
2022-12-17T09:57:13.994Z,16.70
2022-12-17T09:58:13.384Z,17.5
2022-12-17T09:59:13.712Z,16.10
2022-12-17T10:00:14.031Z,16.39
2022-12-17T10:01:14.354Z,16.29
2022-12-17T10:02:14.215Z,16.89
2022-12-17T10:03:14.335Z,16.29
2022-12-17T10:04:14.374Z,17.5
2022-12-17T10:05:13.809Z,17.39
2022-12-17T10:06:17.891Z,16.39
2022-12-17T10:07:14.047Z,15.30
2022-12-17T10:08:13.335Z,16.5
2022-12-17T10:09:14.031Z,15.39
2022-12-17T10:10:13.786Z,15.60
2022-12-17T10:11:13.456Z,15.80
2022-12-17T10:12:13.840Z,17.5
2022-12-17T10:13:14.155Z,16.5
2022-12-17T10:14:13.668Z,16.39
2022-12-17T10:15:14.344Z,18.10
2022-12-17T10:16:14.032Z,17.29
2022-12-17T10:17:13.640Z,17.79
2022-12-17T10:18:14.321Z,16.79
2022-12-17T10:19:13.877Z,16
2022-12-17T10:20:14.436Z,16.29
2022-12-17T10:21:13.974Z,17.20
2022-12-17T10:22:13.315Z,16.70
2022-12-17T10:23:13.603Z,18.29
2022-12-17T10:24:18.592Z,17.79
2022-12-17T10:25:14.133Z,16.10
2022-12-17T10:26:14.213Z,19.10
2022-12-17T10:27:14.084Z,18.10
2022-12-17T10:28:13.633Z,18.60
2022-12-17T10:29:13.873Z,19
2022-12-17T10:30:13.632Z,19.29
2022-12-17T10:31:14.030Z,18.89
2022-12-17T10:32:13.656Z,18.60
2022-12-17T10:33:13.956Z,17.70
2022-12-17T10:34:13.438Z,18.29
2022-12-17T10:35:13.747Z,19.5
2022-12-17T10:36:13.657Z,17.10
2022-12-17T10:37:14.036Z,17.5
2022-12-17T10:38:13.809Z,15.69
2022-12-17T10:39:13.581Z,17.39
2022-12-17T10:40:13.661Z,17.10
2022-12-17T10:41:14.054Z,16.89
2022-12-17T10:42:13.738Z,20.29
2022-12-17T10:43:14.221Z,17.89
2022-12-17T10:44:14.303Z,16.20
2022-12-17T10:45:14.712Z,16.5
2022-12-17T10:46:13.589Z,17.89
2022-12-17T10:47:14.014Z,17.5
2022-12-17T10:48:13.971Z,18.39
2022-12-17T10:49:13.444Z,17.39
2022-12-17T10:50:14.150Z,17.79
2022-12-17T10:51:13.772Z,18
2022-12-17T10:52:14.524Z,16.29
2022-12-17T10:53:13.965Z,19.20
2022-12-17T10:54:13.627Z,17
2022-12-17T10:55:14.407Z,18.29
2022-12-17T10:57:14.469Z,18.39
2022-12-17T10:58:13.077Z,18.10
2022-12-17T10:59:13.855Z,16.5
2022-12-17T11:00:14.401Z,18.79
2022-12-17T11:01:14.827Z,21.20
2022-12-17T11:02:14.046Z,20.39
2022-12-17T11:03:13.939Z,17.39
2022-12-17T11:04:14.254Z,17.89
2022-12-17T11:05:14.193Z,19.29
2022-12-17T11:06:13.748Z,18.10
2022-12-17T11:07:14.216Z,18.5
2022-12-17T11:08:14.021Z,17.60
2022-12-17T11:09:14.257Z,16.70
2022-12-17T11:10:14.417Z,16.60
2022-12-17T11:11:13.702Z,17.89
2022-12-17T11:12:13.493Z,16.29
2022-12-17T11:13:13.651Z,16.39
2022-12-17T11:14:14.422Z,15.60
2022-12-17T11:15:14.274Z,19.29
2022-12-17T11:16:13.958Z,17
2022-12-17T11:17:14.007Z,18.70
2022-12-17T11:18:13.345Z,18.29
2022-12-17T11:20:14.531Z,17.70
2022-12-17T11:21:14.304Z,16.60
2022-12-17T11:22:14.074Z,17.89
2022-12-17T11:23:13.847Z,16.89
2022-12-17T11:24:19.132Z,17.5
2022-12-17T11:25:13.550Z,20.10
2022-12-17T11:26:13.750Z,17.79
2022-12-17T11:27:13.137Z,22
2022-12-17T11:28:13.410Z,20
2022-12-17T11:29:13.455Z,20.70
2022-12-17T11:30:14.535Z,19
2022-12-17T11:31:13.861Z,17.79
2022-12-17T11:32:13.632Z,21.60
2022-12-17T11:33:13.835Z,19.29
2022-12-17T11:34:13.024Z,17.20
2022-12-17T11:35:13.846Z,21.29
2022-12-17T11:36:13.220Z,18.20
2022-12-17T11:37:14.168Z,17.89
2022-12-17T11:40:19.743Z,16.79
2022-12-17T11:41:14.344Z,17.70
2022-12-17T11:42:14.144Z,15.89
2022-12-17T11:43:14.144Z,16.79
2022-12-17T11:44:13.909Z,18.39
2022-12-17T11:45:14.016Z,18.60
2022-12-17T11:46:13.499Z,19
2022-12-17T11:47:14.218Z,17.89
2022-12-17T11:48:13.838Z,19.20
2022-12-17T11:49:13.298Z,16.89
2022-12-17T11:50:13.760Z,17.70
2022-12-17T11:51:13.278Z,18.10
2022-12-17T11:52:13.901Z,19.10
2022-12-17T11:53:13.406Z,17.79
2022-12-17T11:54:14.128Z,18.20
2022-12-17T11:55:13.714Z,16.89
2022-12-17T11:56:14.103Z,19.20
2022-12-17T11:57:14.035Z,17.79
2022-12-17T11:58:27.582Z,18.79
2022-12-17T11:59:13.273Z,18.10
2022-12-17T12:00:14.601Z,20
2022-12-17T12:01:13.748Z,17.20
2022-12-17T12:02:13.136Z,19
2022-12-17T12:03:13.852Z,16.79
2022-12-17T12:04:14.471Z,18.60
2022-12-17T12:05:14.513Z,18.89
2022-12-17T12:06:13.743Z,17.39
2022-12-17T12:07:13.178Z,17.29
2022-12-17T12:08:13.643Z,16.5
2022-12-17T12:09:13.271Z,15.10
2022-12-17T12:10:13.954Z,16.89
2022-12-17T12:11:13.246Z,18.20
2022-12-17T12:12:13.979Z,16.39
2022-12-17T12:13:13.434Z,15.60
2022-12-17T12:14:13.910Z,16.39
2022-12-17T12:15:13.808Z,16.60
2022-12-17T12:16:14.114Z,15.69
2022-12-17T12:17:14.424Z,16.70
2022-12-17T12:18:13.825Z,18.20
2022-12-17T12:19:13.335Z,16.20
2022-12-17T12:20:13.984Z,16.10
2022-12-17T12:21:13.779Z,16.29
2022-12-17T12:22:35.275Z,16.70
2022-12-17T12:23:13.563Z,15.39
2022-12-17T12:24:14.521Z,17.10
2022-12-17T12:26:13.963Z,14.89
2022-12-17T12:27:13.361Z,15.5
2022-12-17T12:28:13.704Z,16.70
2022-12-17T12:29:13.406Z,16.20
2022-12-17T12:30:14.629Z,15.80
2022-12-17T12:31:14.277Z,17
2022-12-17T12:32:13.970Z,16.20
2022-12-17T12:33:13.578Z,17
2022-12-17T12:34:14.148Z,16.20
2022-12-17T12:35:13.756Z,19.10
2022-12-17T12:36:13.576Z,16.29
2022-12-17T12:37:14.360Z,17.39
2022-12-17T12:38:14.016Z,16.29
2022-12-17T12:39:13.414Z,15.89
2022-12-17T12:40:14.523Z,15.5
2022-12-17T12:41:13.338Z,17.79
2022-12-17T12:42:14.068Z,16.29
2022-12-17T12:43:13.615Z,16.20
2022-12-17T12:44:13.751Z,15.89
2022-12-17T12:45:13.697Z,19.10
2022-12-17T12:46:13.562Z,17.20
2022-12-17T12:47:13.042Z,17.70
2022-12-17T12:48:13.598Z,16.39
2022-12-17T12:49:14.111Z,17.10
2022-12-17T12:50:14.055Z,15.89
2022-12-17T12:51:13.455Z,17.20
2022-12-17T12:52:13.998Z,17.70
2022-12-17T12:54:14.239Z,18.70
2022-12-17T12:55:14.194Z,17.70
2022-12-17T12:56:13.779Z,16.39
2022-12-17T12:57:14.389Z,17.10
2022-12-17T12:58:13.846Z,17.89
2022-12-17T12:59:13.279Z,17.5
2022-12-17T13:00:15.061Z,16.60
2022-12-17T13:01:14.589Z,21
2022-12-17T13:02:14.048Z,17.39
2022-12-17T13:03:14.511Z,15.80
2022-12-17T13:04:14.870Z,18.89
2022-12-17T13:05:14.193Z,16.79
2022-12-17T13:06:13.711Z,17.79
2022-12-17T13:07:13.138Z,18.39
2022-12-17T13:08:13.957Z,17.60
2022-12-17T13:09:14.132Z,17.5
2022-12-17T13:10:14.231Z,17.20
2022-12-17T13:11:13.992Z,16.29
2022-12-17T13:12:13.385Z,18
2022-12-17T13:13:14.139Z,15.60
2022-12-17T13:14:13.614Z,16.70
2022-12-17T13:15:14.144Z,17.10
2022-12-17T13:16:13.803Z,16.29
2022-12-17T13:17:13.840Z,17.29
2022-12-17T13:18:13.392Z,17.79
2022-12-17T13:19:14.194Z,17.20
2022-12-17T13:20:13.980Z,16
2022-12-17T13:21:14.053Z,18.5
2022-12-17T13:22:16.572Z,17.79
2022-12-17T13:23:13.457Z,17.60
2022-12-17T13:24:14.535Z,18.89
2022-12-17T13:25:14.549Z,19.89
2022-12-17T13:26:13.896Z,19
2022-12-17T13:27:13.484Z,18.29
2022-12-17T13:28:13.897Z,18.39
2022-12-17T13:29:14.547Z,18.70
2022-12-17T13:30:13.929Z,16.70